createdAt,value
2022-08-23T00:02:24.529Z,1.55
2022-08-23T00:05:03.498Z,1.33
2022-08-23T00:07:39.088Z,1.48
2022-08-23T00:10:09.632Z,1.45
2022-08-23T00:12:37.626Z,1.55
2022-08-23T00:15:05.615Z,1.25
2022-08-23T00:17:35.059Z,1.38
2022-08-23T00:20:08.093Z,1.38
2022-08-23T00:22:35.170Z,1.23
2022-08-23T00:25:01.955Z,1.65
2022-08-23T00:27:29.072Z,1.55
2022-08-23T00:29:57.776Z,1.40
2022-08-23T00:32:37.332Z,1.35
2022-08-23T00:35:05.122Z,1.25
2022-08-23T00:37:32.623Z,1.40
2022-08-23T00:40:00.954Z,1.20
2022-08-23T00:42:57.008Z,1.35
2022-08-23T00:45:49.022Z,1.10
2022-08-23T00:48:16.391Z,1.10
2022-08-23T00:51:05.654Z,1.00
2022-08-23T00:53:38.197Z,1.20
2022-08-23T00:56:12.605Z,1.17
2022-08-23T00:58:39.780Z,1.10
2022-08-23T01:01:07.520Z,1.02
2022-08-23T01:03:39.735Z,1.25
2022-08-23T01:06:19.744Z,1.38
2022-08-23T01:08:52.481Z,1.10
2022-08-23T01:11:29.412Z,1.00
2022-08-23T01:14:12.057Z,1.25
2022-08-23T01:16:46.128Z,1.17
2022-08-23T01:19:30.423Z,1.30
2022-08-23T01:22:26.202Z,1.33
2022-08-23T01:25:07.331Z,1.45
2022-08-23T01:27:37.148Z,1.30
2022-08-23T01:30:07.342Z,1.40
2022-08-23T01:32:41.284Z,1.33
2022-08-23T01:35:09.156Z,1.20
2022-08-23T01:37:36.351Z,1.40
2022-08-23T01:40:03.594Z,1.50
2022-08-23T01:42:31.168Z,1.10
2022-08-23T01:44:58.704Z,1.02
2022-08-23T01:47:25.637Z,1.20
2022-08-23T01:49:52.350Z,1.10
2022-08-23T01:52:19.723Z,0.90
2022-08-23T01:54:46.674Z,0.95
2022-08-23T01:57:13.715Z,0.88
2022-08-23T01:59:40.510Z,1.00
2022-08-23T02:02:07.374Z,1.00
2022-08-23T02:04:34.517Z,0.80
2022-08-23T02:07:01.335Z,0.85
2022-08-23T02:09:28.071Z,0.85
2022-08-23T02:11:55.284Z,1.00
2022-08-23T02:14:22.153Z,0.95
2022-08-23T02:17:02.805Z,1.23
2022-08-23T02:19:33.447Z,0.82
2022-08-23T02:22:00.803Z,0.70
2022-08-23T02:24:27.781Z,0.85
2022-08-23T02:26:57.200Z,0.88
2022-08-23T02:29:25.536Z,1.05
2022-08-23T02:31:53.099Z,1.17
2022-08-23T02:34:20.452Z,1.15
2022-08-23T02:36:47.549Z,1.08
2022-08-23T02:39:17.854Z,1.00
2022-08-23T02:41:45.055Z,1.30
2022-08-23T02:44:12.699Z,0.93
2022-08-23T02:46:40.288Z,1.20
2022-08-23T02:49:08.265Z,1.15
2022-08-23T02:51:35.724Z,1.08
2022-08-23T02:54:02.583Z,1.00
2022-08-23T02:56:29.463Z,1.08
2022-08-23T02:58:56.291Z,0.90
2022-08-23T03:01:27.164Z,1.00
2022-08-23T03:03:53.970Z,1.10
2022-08-23T03:06:25.727Z,1.38
2022-08-23T03:08:54.985Z,0.85
2022-08-23T03:11:22.885Z,0.90
2022-08-23T03:13:51.086Z,1.00
2022-08-23T03:16:18.465Z,0.98
2022-08-23T03:18:45.741Z,1.08
2022-08-23T03:21:13.412Z,1.13
2022-08-23T03:23:41.209Z,0.77
2022-08-23T03:26:11.335Z,0.80
2022-08-23T03:28:40.113Z,0.80
2022-08-23T03:31:08.822Z,0.70
2022-08-23T03:33:36.437Z,0.82
2022-08-23T03:36:06.598Z,0.85
2022-08-23T03:38:34.165Z,0.80
2022-08-23T03:41:01.357Z,0.70
2022-08-23T03:43:28.231Z,0.73
2022-08-23T03:45:55.052Z,1.05
2022-08-23T03:48:21.936Z,0.60
2022-08-23T03:50:48.767Z,1.02
2022-08-23T03:53:16.765Z,0.90
2022-08-23T03:55:44.302Z,0.70
2022-08-23T03:58:11.927Z,1.10
2022-08-23T04:00:39.233Z,0.70
2022-08-23T04:03:06.083Z,0.70
2022-08-23T04:05:32.875Z,0.70
2022-08-23T04:08:01.968Z,1.00
2022-08-23T04:10:28.938Z,0.80
2022-08-23T04:12:55.807Z,0.77
2022-08-23T04:15:23.292Z,0.80
2022-08-23T04:17:50.114Z,1.00
2022-08-23T04:20:17.977Z,0.70
2022-08-23T04:22:46.063Z,0.70
2022-08-23T04:25:33.022Z,0.87
2022-08-23T04:28:01.059Z,0.68
2022-08-23T04:30:28.557Z,0.73
2022-08-23T04:32:55.482Z,0.90
2022-08-23T04:35:22.772Z,0.80
2022-08-23T04:37:49.802Z,0.70
2022-08-23T04:40:35.654Z,0.60
2022-08-23T04:43:02.856Z,0.70
2022-08-23T04:45:29.813Z,1.00
2022-08-23T04:47:56.865Z,0.70
2022-08-23T04:50:24.367Z,0.68
2022-08-23T04:52:51.146Z,0.52
2022-08-23T04:55:17.869Z,0.70
2022-08-23T04:57:44.908Z,0.80
2022-08-23T05:00:14.010Z,0.68
2022-08-23T05:02:40.896Z,0.63
2022-08-23T05:05:09.418Z,0.82
2022-08-23T05:07:42.448Z,0.70
2022-08-23T05:10:12.975Z,0.80
2022-08-23T05:12:40.718Z,0.80
2022-08-23T05:15:09.670Z,0.70
2022-08-23T05:17:37.702Z,0.70
2022-08-23T05:20:07.104Z,1.05
2022-08-23T05:22:38.407Z,0.73
2022-08-23T05:27:32.122Z,0.75
2022-08-23T05:29:59.107Z,0.80
2022-08-23T05:32:27.663Z,0.70
2022-08-23T05:34:56.110Z,0.85
2022-08-23T05:37:22.967Z,0.75
2022-08-23T05:39:49.724Z,0.90
2022-08-23T05:42:16.774Z,0.90
2022-08-23T05:44:45.350Z,0.88
2022-08-23T05:47:15.608Z,0.90
2022-08-23T05:49:42.806Z,0.73
2022-08-23T05:52:12.386Z,1.08
2022-08-23T05:54:40.011Z,0.70
2022-08-23T05:57:06.956Z,0.90
2022-08-23T05:59:33.841Z,0.90
2022-08-23T06:02:00.650Z,0.90
2022-08-23T06:04:27.463Z,0.82
2022-08-23T06:06:56.419Z,0.90
2022-08-23T06:09:23.793Z,0.90
2022-08-23T06:11:50.623Z,0.85
2022-08-23T06:14:17.558Z,0.70
2022-08-23T06:16:47.789Z,0.70
2022-08-23T06:19:15.176Z,0.60
2022-08-23T06:21:43.226Z,0.57
2022-08-23T06:24:10.866Z,0.68
2022-08-23T06:26:41.445Z,0.47
2022-08-23T06:29:15.544Z,0.60
2022-08-23T06:31:49.145Z,0.40
2022-08-23T06:34:23.591Z,0.73
2022-08-23T06:36:53.435Z,0.88
2022-08-23T06:39:22.504Z,0.47
2022-08-23T06:41:50.360Z,0.40
2022-08-23T06:44:18.651Z,0.50
2022-08-23T06:46:48.119Z,0.52
2022-08-23T06:49:15.373Z,0.50
2022-08-23T06:51:45.466Z,0.47
2022-08-23T06:54:15.482Z,0.35
2022-08-23T06:56:44.105Z,0.40
2022-08-23T06:59:12.291Z,0.52
2022-08-23T07:01:48.792Z,0.50
2022-08-23T07:04:19.312Z,0.60
2022-08-23T07:06:46.443Z,0.50
2022-08-23T07:09:13.796Z,0.43
2022-08-23T07:11:41.303Z,0.57
2022-08-23T07:14:10.948Z,0.70
2022-08-23T07:16:41.948Z,0.30
2022-08-23T07:19:09.322Z,0.30
2022-08-23T07:21:37.380Z,0.45
2022-08-23T07:24:04.996Z,0.50
2022-08-23T07:26:32.487Z,0.50
2022-08-23T07:28:59.235Z,0.50
2022-08-23T07:31:30.883Z,0.60
2022-08-23T07:34:00.190Z,0.50
2022-08-23T07:36:28.595Z,0.63
2022-08-23T07:38:56.325Z,0.50
2022-08-23T07:41:25.953Z,0.50
2022-08-23T07:43:52.778Z,0.50
2022-08-23T07:46:19.724Z,0.50
2022-08-23T07:48:55.105Z,0.60
2022-08-23T07:51:22.459Z,0.50
2022-08-23T07:53:49.254Z,0.50
2022-08-23T07:56:19.278Z,0.60
2022-08-23T07:58:46.176Z,0.80
2022-08-23T08:01:19.328Z,0.50
2022-08-23T08:03:48.043Z,0.35
2022-08-23T08:06:22.089Z,0.45
2022-08-23T08:08:50.023Z,0.45
2022-08-23T08:11:19.135Z,0.77
2022-08-23T08:13:48.263Z,1.77
2022-08-23T08:16:37.197Z,0.50
2022-08-23T08:19:07.706Z,0.82
2022-08-23T08:21:35.802Z,0.82
2022-08-23T08:24:06.745Z,0.70
2022-08-23T08:26:34.299Z,0.45
2022-08-23T08:29:01.117Z,1.00
2022-08-23T08:31:27.967Z,0.50
2022-08-23T08:33:54.820Z,0.60
2022-08-23T08:36:39.910Z,0.40
2022-08-23T08:39:11.102Z,1.85
2022-08-23T08:42:12.814Z,0.60
2022-08-23T08:44:50.009Z,0.60
2022-08-23T08:47:22.465Z,0.80
2022-08-23T08:50:07.609Z,0.70
2022-08-23T08:52:45.388Z,0.30
2022-08-23T08:55:24.133Z,0.55
2022-08-23T08:57:52.316Z,0.55
2022-08-23T09:00:25.800Z,0.73
2022-08-23T09:02:53.332Z,0.80
2022-08-23T09:05:27.094Z,0.60
2022-08-23T09:08:24.727Z,0.80
2022-08-23T09:11:01.957Z,0.80
2022-08-23T09:13:56.745Z,0.88
2022-08-23T09:16:30.219Z,0.60
2022-08-23T09:18:57.234Z,0.52
2022-08-23T09:21:24.595Z,0.47
2022-08-23T09:24:00.636Z,0.40
2022-08-23T09:26:30.925Z,0.70
2022-08-23T09:29:06.314Z,0.60
2022-08-23T09:31:43.042Z,0.52
2022-08-23T09:34:17.502Z,0.43
2022-08-23T09:36:44.543Z,0.60
2022-08-23T09:39:31.243Z,0.57
2022-08-23T09:41:59.217Z,0.50
2022-08-23T09:44:46.220Z,0.45
2022-08-23T09:47:17.226Z,0.50
2022-08-23T09:49:48.417Z,0.40
2022-08-23T09:52:37.798Z,0.57
2022-08-23T09:55:31.756Z,0.50
2022-08-23T09:58:01.478Z,0.40
2022-08-23T10:00:33.982Z,0.47
2022-08-23T10:03:31.178Z,0.50
2022-08-23T10:06:02.751Z,0.30
2022-08-23T10:08:42.905Z,0.50
2022-08-23T10:11:12.735Z,0.40
2022-08-23T10:13:42.943Z,0.40
2022-08-23T10:16:29.182Z,0.43
2022-08-23T10:19:31.469Z,0.70
2022-08-23T10:22:34.958Z,0.40
2022-08-23T10:25:22.378Z,0.68
2022-08-23T10:28:51.915Z,0.30
2022-08-23T10:31:28.573Z,0.43
2022-08-23T10:34:10.275Z,0.40
2022-08-23T10:36:51.177Z,0.50
2022-08-23T10:39:25.783Z,0.35
2022-08-23T10:42:14.332Z,0.40
2022-08-23T10:44:51.167Z,0.60
2022-08-23T10:47:34.105Z,0.50
2022-08-23T10:50:07.724Z,0.45
2022-08-23T10:52:47.163Z,0.40
2022-08-23T10:55:35.363Z,0.52
2022-08-23T10:58:07.241Z,0.50
2022-08-23T11:00:36.111Z,0.77
2022-08-23T11:03:25.479Z,0.50
2022-08-23T11:06:46.254Z,0.45
2022-08-23T11:09:21.817Z,0.60
2022-08-23T11:12:14.609Z,0.50
2022-08-23T11:14:43.466Z,0.63
2022-08-23T11:17:29.013Z,0.50
2022-08-23T11:19:57.766Z,0.60
2022-08-23T11:22:33.408Z,0.50
2022-08-23T11:25:17.102Z,0.40
2022-08-23T11:27:44.571Z,0.50
2022-08-23T11:30:33.434Z,0.50
2022-08-23T11:33:20.383Z,0.40
2022-08-23T11:36:16.737Z,0.50
2022-08-23T11:38:49.453Z,0.50
2022-08-23T11:41:18.920Z,0.40
2022-08-23T11:44:13.563Z,0.70
2022-08-23T11:46:59.422Z,0.57
2022-08-23T11:49:29.645Z,0.68
2022-08-23T11:52:23.841Z,0.60
2022-08-23T11:55:11.972Z,0.65
2022-08-23T11:57:44.487Z,0.73
2022-08-23T12:00:48.761Z,0.60
2022-08-23T12:03:37.146Z,0.50
2022-08-23T12:06:34.294Z,0.50
2022-08-23T12:09:12.177Z,0.45
2022-08-23T12:11:56.912Z,0.40
2022-08-23T12:14:32.638Z,0.50
2022-08-23T12:17:29.702Z,0.60
2022-08-23T12:20:16.384Z,0.70
2022-08-23T12:23:13.361Z,0.60
2022-08-23T12:25:41.355Z,0.40
2022-08-23T12:28:32.854Z,0.50
2022-08-23T12:31:20.213Z,0.50
2022-08-23T12:34:22.577Z,0.52
2022-08-23T12:36:58.227Z,0.40
2022-08-23T12:39:39.834Z,0.50
2022-08-23T12:42:15.970Z,0.45
2022-08-23T12:44:58.334Z,0.50
2022-08-23T12:47:25.269Z,0.50
2022-08-23T12:50:12.451Z,0.40
2022-08-23T12:52:39.399Z,0.70
2022-08-23T12:55:19.345Z,0.77
2022-08-23T12:57:55.276Z,0.43
2022-08-23T13:00:36.800Z,1.30
2022-08-23T13:03:20.058Z,0.52
2022-08-23T13:06:02.429Z,0.40
2022-08-23T13:09:13.153Z,0.55
2022-08-23T13:11:42.729Z,0.85
2022-08-23T13:17:12.897Z,0.40
2022-08-23T13:19:40.005Z,0.40
2022-08-23T13:22:22.393Z,0.50
2022-08-23T13:25:28.058Z,0.40
2022-08-23T13:27:54.507Z,0.50
2022-08-23T13:30:30.795Z,0.50
2022-08-23T13:33:10.693Z,0.50
2022-08-23T13:35:47.182Z,0.45
2022-08-23T13:38:21.292Z,0.40
2022-08-23T13:41:09.055Z,0.50
2022-08-23T13:43:44.813Z,0.40
2022-08-23T13:46:26.617Z,0.52
2022-08-23T13:49:09.374Z,0.50
2022-08-23T13:51:39.506Z,0.60
2022-08-23T13:54:10.597Z,0.47
2022-08-23T13:56:44.077Z,0.60
2022-08-23T13:59:19.803Z,0.60
2022-08-23T14:01:46.701Z,0.52
2022-08-23T14:04:13.457Z,0.60
2022-08-23T14:06:40.203Z,0.60
2022-08-23T14:09:07.413Z,0.77
2022-08-23T14:11:34.593Z,0.50
2022-08-23T14:14:02.309Z,0.60
2022-08-23T14:16:33.676Z,0.40
2022-08-23T14:19:54.699Z,0.40
2022-08-23T14:21:49.414Z,0.57
2022-08-23T14:24:18.569Z,0.75
2022-08-23T14:26:51.555Z,0.63
2022-08-23T14:29:22.521Z,0.50
2022-08-23T14:31:51.243Z,0.70
2022-08-23T14:34:18.412Z,0.52
2022-08-23T14:39:32.046Z,0.40
2022-08-23T14:41:58.825Z,0.50
2022-08-23T14:44:29.007Z,0.63
2022-08-23T14:46:59.584Z,0.57
2022-08-23T14:49:26.439Z,0.95
2022-08-23T14:51:53.887Z,0.52
2022-08-23T14:54:26.153Z,0.77
2022-08-23T14:56:53.535Z,0.60
2022-08-23T14:59:20.788Z,0.70
2022-08-23T15:01:49.797Z,0.77
2022-08-23T15:04:19.791Z,0.75
2022-08-23T15:07:13.777Z,0.60
2022-08-23T15:09:34.888Z,0.60
2022-08-23T15:14:48.767Z,0.50
2022-08-23T15:17:15.797Z,0.55
2022-08-23T15:19:42.558Z,0.60
2022-08-23T15:22:18.523Z,0.50
2022-08-23T15:24:48.343Z,0.80
2022-08-23T15:27:15.095Z,0.82
2022-08-23T15:29:41.979Z,0.80
2022-08-23T15:32:09.247Z,0.60
2022-08-23T15:34:40.144Z,1.15
2022-08-23T15:37:13.241Z,0.47
2022-08-23T15:39:41.122Z,0.70
2022-08-23T15:42:07.993Z,0.47
2022-08-23T15:44:34.732Z,0.50
2022-08-23T15:47:05.040Z,0.60
2022-08-23T15:49:36.227Z,0.70
2022-08-23T15:52:04.487Z,0.75
2022-08-23T15:54:31.316Z,0.65
2022-08-23T15:56:58.388Z,1.00
2022-08-23T15:59:25.656Z,0.60
2022-08-23T16:01:52.806Z,0.88
2022-08-23T16:04:19.623Z,0.60
2022-08-23T16:06:47.306Z,0.60
2022-08-23T16:09:24.088Z,0.60
2022-08-23T16:11:51.698Z,0.60
2022-08-23T16:14:18.827Z,0.60
2022-08-23T16:16:48.825Z,0.73
2022-08-23T16:19:16.828Z,0.63
2022-08-23T16:21:44.678Z,0.52
2022-08-23T16:24:11.523Z,0.60
2022-08-23T16:26:45.501Z,0.80
2022-08-23T16:29:14.571Z,0.88
2022-08-23T16:31:41.925Z,0.52
2022-08-23T16:34:16.239Z,0.70
2022-08-23T16:36:46.498Z,0.63
2022-08-23T16:39:16.683Z,0.60
2022-08-23T16:41:43.593Z,0.50
2022-08-23T16:44:10.629Z,0.77
2022-08-23T16:46:41.166Z,0.60
2022-08-23T16:49:08.903Z,0.50
2022-08-23T16:51:35.729Z,0.40
2022-08-23T16:54:03.462Z,0.35
2022-08-23T16:56:34.182Z,0.60
2022-08-23T16:59:01.597Z,0.55
2022-08-23T17:01:29.576Z,0.43
2022-08-23T17:03:56.463Z,0.50
2022-08-23T17:06:23.269Z,0.40
2022-08-23T17:08:50.052Z,0.40
2022-08-23T17:11:19.262Z,0.47
2022-08-23T17:13:46.176Z,0.40
2022-08-23T17:16:13.264Z,0.40
2022-08-23T17:18:40.362Z,0.40
2022-08-23T17:21:08.497Z,0.32
2022-08-23T17:23:40.464Z,0.50
2022-08-23T17:26:11.111Z,0.60
2022-08-23T17:28:37.831Z,0.50
2022-08-23T17:31:07.311Z,0.50
2022-08-23T17:33:34.099Z,0.68
2022-08-23T17:36:00.929Z,0.60
2022-08-23T17:38:27.879Z,1.30
2022-08-23T17:40:55.433Z,3.40
2022-08-23T17:43:22.438Z,3.83
2022-08-23T17:45:51.329Z,2.30
2022-08-23T17:48:20.790Z,1.67
2022-08-23T17:50:47.728Z,1.42
2022-08-23T17:53:16.413Z,1.30
2022-08-23T17:55:44.135Z,0.80
2022-08-23T17:58:11.238Z,0.65
2022-08-23T18:00:39.355Z,0.60
2022-08-23T18:03:07.064Z,0.50
2022-08-23T18:05:37.142Z,0.50
2022-08-23T18:08:04.383Z,0.50
2022-08-23T18:10:31.355Z,0.70
2022-08-23T18:12:58.764Z,0.52
2022-08-23T18:15:32.316Z,0.70
2022-08-23T18:18:00.306Z,0.50
2022-08-23T18:20:29.026Z,0.52
2022-08-23T18:22:57.418Z,0.65
2022-08-23T18:25:24.897Z,0.50
2022-08-23T18:28:07.092Z,0.55
2022-08-23T18:30:47.062Z,0.50
2022-08-23T18:33:15.044Z,0.55
2022-08-23T18:35:42.876Z,0.45
2022-08-23T18:38:10.762Z,0.60
2022-08-23T18:40:45.422Z,0.70
2022-08-23T18:43:13.420Z,0.50
2022-08-23T18:45:40.444Z,0.60
2022-08-23T18:48:07.362Z,0.40
2022-08-23T18:50:34.289Z,0.30
2022-08-23T18:53:01.370Z,0.77
2022-08-23T18:55:28.300Z,0.60
2022-08-23T18:57:55.112Z,0.50
2022-08-23T19:00:21.911Z,0.60
2022-08-23T19:02:48.706Z,0.80
2022-08-23T19:05:15.944Z,0.65
2022-08-23T19:07:42.703Z,0.95
2022-08-23T19:10:10.016Z,0.60
2022-08-23T19:12:37.149Z,0.43
2022-08-23T19:15:05.042Z,0.60
2022-08-23T19:17:31.944Z,0.60
2022-08-23T19:19:58.830Z,0.50
2022-08-23T19:22:25.614Z,0.70
2022-08-23T19:24:52.578Z,0.40
2022-08-23T19:27:19.369Z,0.70
2022-08-23T19:29:46.184Z,0.47
2022-08-23T19:32:14.103Z,0.40
2022-08-23T19:34:42.337Z,0.40
2022-08-23T19:37:16.211Z,0.50
2022-08-23T19:39:49.140Z,0.57
2022-08-23T19:42:16.262Z,0.80
2022-08-23T19:44:43.075Z,0.47
2022-08-23T19:47:19.414Z,0.47
2022-08-23T19:49:48.626Z,0.52
2022-08-23T19:52:15.448Z,0.75
2022-08-23T19:54:42.176Z,0.47
2022-08-23T19:57:10.181Z,0.60
2022-08-23T19:59:39.340Z,0.60
2022-08-23T20:02:07.743Z,0.60
2022-08-23T20:04:34.655Z,0.70
2022-08-23T20:07:02.425Z,0.68
2022-08-23T20:09:31.642Z,0.60
2022-08-23T20:11:59.679Z,0.70
2022-08-23T20:14:31.395Z,0.50
2022-08-23T20:16:58.317Z,0.55
2022-08-23T20:19:25.730Z,0.57
2022-08-23T20:22:15.704Z,0.45
2022-08-23T20:24:51.374Z,0.60
2022-08-23T20:27:27.806Z,0.52
2022-08-23T20:30:01.799Z,0.50
2022-08-23T20:32:29.586Z,0.63
2022-08-23T20:34:56.384Z,0.60
2022-08-23T20:37:23.304Z,0.60
2022-08-23T20:39:50.126Z,0.52
2022-08-23T20:42:17.507Z,0.70
2022-08-23T20:44:44.654Z,0.50
2022-08-23T20:47:12.897Z,0.52
2022-08-23T20:49:39.823Z,0.60
2022-08-23T20:52:07.238Z,0.68
2022-08-23T20:54:34.732Z,0.65
2022-08-23T20:57:01.983Z,0.43
2022-08-23T20:59:28.882Z,0.40
2022-08-23T21:01:55.858Z,0.70
2022-08-23T21:04:22.774Z,0.43
2022-08-23T21:06:57.851Z,0.52
2022-08-23T21:09:29.506Z,0.32
2022-08-23T21:11:57.457Z,0.40
2022-08-23T21:14:24.519Z,0.55
2022-08-23T21:16:51.457Z,0.50
2022-08-23T21:19:19.208Z,0.60
2022-08-23T21:21:46.489Z,0.50
2022-08-23T21:24:13.903Z,0.35
2022-08-23T21:26:41.577Z,0.50
2022-08-23T21:29:10.022Z,0.52
2022-08-23T21:31:37.901Z,0.40
2022-08-23T21:34:05.053Z,0.50
2022-08-23T21:36:31.910Z,0.40
2022-08-23T21:38:58.872Z,0.52
2022-08-23T21:41:36.891Z,0.60
2022-08-23T21:44:06.590Z,0.50
2022-08-23T21:46:34.007Z,0.82
2022-08-23T21:49:00.859Z,0.70
2022-08-23T21:51:28.963Z,0.40
2022-08-23T21:53:56.181Z,0.60
2022-08-23T21:56:23.083Z,0.47
2022-08-23T21:58:54.915Z,0.50
2022-08-23T22:01:21.689Z,0.65
2022-08-23T22:03:48.495Z,0.40
2022-08-23T22:06:18.068Z,0.40
2022-08-23T22:08:45.566Z,0.40
2022-08-23T22:11:14.046Z,0.60
2022-08-23T22:13:41.629Z,0.40
2022-08-23T22:16:09.206Z,0.45
2022-08-23T22:18:36.128Z,0.45
2022-08-23T22:21:04.490Z,0.30
2022-08-23T22:23:31.718Z,0.40
2022-08-23T22:26:00.557Z,0.50
2022-08-23T22:28:31.265Z,0.50
2022-08-23T22:31:02.309Z,0.40
2022-08-23T22:33:30.314Z,0.57
2022-08-23T22:36:12.843Z,0.57
2022-08-23T22:38:40.271Z,0.55
2022-08-23T22:41:07.453Z,0.55
2022-08-23T22:43:34.651Z,0.70
2022-08-23T22:46:05.003Z,0.70
2022-08-23T22:48:34.915Z,0.60
2022-08-23T22:51:16.730Z,0.50
2022-08-23T22:53:47.380Z,0.60
2022-08-23T22:56:24.105Z,0.52
2022-08-23T22:58:53.833Z,0.55
2022-08-23T23:01:32.888Z,0.93
2022-08-23T23:04:03.350Z,0.63
2022-08-23T23:06:30.510Z,0.60
2022-08-23T23:08:57.406Z,0.60
2022-08-23T23:11:25.318Z,0.50
2022-08-23T23:13:52.354Z,0.57
2022-08-23T23:16:24.578Z,0.50
2022-08-23T23:19:11.094Z,0.50
2022-08-23T23:21:41.612Z,0.50
2022-08-23T23:24:09.550Z,0.70
2022-08-23T23:26:36.524Z,0.75
2022-08-23T23:29:03.466Z,0.60
2022-08-23T23:31:30.294Z,0.60
2022-08-23T23:33:57.348Z,0.60
2022-08-23T23:36:24.647Z,0.70
2022-08-23T23:38:52.478Z,0.35
2022-08-23T23:41:20.546Z,0.50
2022-08-23T23:43:47.922Z,0.40
2022-08-23T23:46:17.188Z,0.50
2022-08-23T23:48:47.791Z,0.52
2022-08-23T23:51:17.750Z,0.52
2022-08-23T23:53:44.730Z,0.60
2022-08-23T23:56:14.787Z,0.68
2022-08-23T23:58:41.815Z,0.70
